sensor_id;sensor_type;location;lat;lon;timestamp;P1;durP1;ratioP1;P2;durP2;ratioP2
63364;SDS011;49500;51.212;6.676;2022-08-19T00:00:34;5.32;;;3.72;;
63364;SDS011;49500;51.212;6.676;2022-08-19T00:03:00;5.95;;;3.88;;
63364;SDS011;49500;51.212;6.676;2022-08-19T00:05:25;5.38;;;3.60;;
63364;SDS011;49500;51.212;6.676;2022-08-19T00:07:51;5.28;;;3.60;;
63364;SDS011;49500;51.212;6.676;2022-08-19T00:10:18;5.03;;;3.30;;
63364;SDS011;49500;51.212;6.676;2022-08-19T00:12:44;5.47;;;3.92;;
63364;SDS011;49500;51.212;6.676;2022-08-19T00:15:13;5.53;;;3.70;;
63364;SDS011;49500;51.212;6.676;2022-08-19T00:17:40;6.55;;;4.05;;
63364;SDS011;49500;51.212;6.676;2022-08-19T00:20:07;5.30;;;3.85;;
63364;SDS011;49500;51.212;6.676;2022-08-19T00:22:33;5.22;;;3.70;;
63364;SDS011;49500;51.212;6.676;2022-08-19T00:24:59;5.13;;;3.25;;
63364;SDS011;49500;51.212;6.676;2022-08-19T00:27:27;5.45;;;3.83;;
63364;SDS011;49500;51.212;6.676;2022-08-19T00:29:53;5.68;;;3.60;;
63364;SDS011;49500;51.212;6.676;2022-08-19T00:32:18;5.35;;;3.78;;
63364;SDS011;49500;51.212;6.676;2022-08-19T00:34:44;7.55;;;4.18;;
63364;SDS011;49500;51.212;6.676;2022-08-19T00:37:10;4.93;;;3.55;;
63364;SDS011;49500;51.212;6.676;2022-08-19T00:39:35;5.72;;;3.65;;
63364;SDS011;49500;51.212;6.676;2022-08-19T00:42:01;6.57;;;4.13;;
63364;SDS011;49500;51.212;6.676;2022-08-19T00:44:28;5.05;;;3.67;;
63364;SDS011;49500;51.212;6.676;2022-08-19T00:46:55;5.30;;;3.55;;
63364;SDS011;49500;51.212;6.676;2022-08-19T00:49:26;5.35;;;3.65;;
63364;SDS011;49500;51.212;6.676;2022-08-19T00:51:53;5.18;;;3.60;;
63364;SDS011;49500;51.212;6.676;2022-08-19T00:54:20;5.20;;;3.55;;
63364;SDS011;49500;51.212;6.676;2022-08-19T00:56:56;5.18;;;3.38;;
63364;SDS011;49500;51.212;6.676;2022-08-19T00:59:22;5.45;;;3.83;;
63364;SDS011;49500;51.212;6.676;2022-08-19T01:02:08;5.18;;;3.40;;
63364;SDS011;49500;51.212;6.676;2022-08-19T01:04:34;5.50;;;3.80;;
63364;SDS011;49500;51.212;6.676;2022-08-19T01:06:59;5.60;;;3.47;;
63364;SDS011;49500;51.212;6.676;2022-08-19T01:09:26;7.45;;;3.42;;
63364;SDS011;49500;51.212;6.676;2022-08-19T01:11:52;5.38;;;3.72;;
63364;SDS011;49500;51.212;6.676;2022-08-19T01:14:18;5.07;;;3.60;;
63364;SDS011;49500;51.212;6.676;2022-08-19T01:16:45;5.20;;;3.63;;
63364;SDS011;49500;51.212;6.676;2022-08-19T01:19:18;5.53;;;3.80;;
63364;SDS011;49500;51.212;6.676;2022-08-19T01:21:49;5.05;;;3.38;;
63364;SDS011;49500;51.212;6.676;2022-08-19T01:24:16;5.20;;;3.50;;
63364;SDS011;49500;51.212;6.676;2022-08-19T01:26:42;5.00;;;3.40;;
63364;SDS011;49500;51.212;6.676;2022-08-19T01:29:09;5.60;;;3.88;;
63364;SDS011;49500;51.212;6.676;2022-08-19T01:31:35;5.35;;;3.90;;
63364;SDS011;49500;51.212;6.676;2022-08-19T01:34:02;5.22;;;3.38;;
63364;SDS011;49500;51.212;6.676;2022-08-19T01:36:30;5.65;;;3.63;;
63364;SDS011;49500;51.212;6.676;2022-08-19T01:38:57;5.57;;;3.63;;
63364;SDS011;49500;51.212;6.676;2022-08-19T01:41:23;5.47;;;3.40;;
63364;SDS011;49500;51.212;6.676;2022-08-19T01:43:50;5.18;;;3.05;;
63364;SDS011;49500;51.212;6.676;2022-08-19T01:46:36;4.72;;;3.08;;
63364;SDS011;49500;51.212;6.676;2022-08-19T01:49:03;5.15;;;3.42;;
63364;SDS011;49500;51.212;6.676;2022-08-19T01:51:29;5.35;;;3.47;;
63364;SDS011;49500;51.212;6.676;2022-08-19T01:54:05;5.28;;;3.40;;
63364;SDS011;49500;51.212;6.676;2022-08-19T01:56:30;4.88;;;3.15;;
63364;SDS011;49500;51.212;6.676;2022-08-19T01:58:58;4.85;;;3.28;;
63364;SDS011;49500;51.212;6.676;2022-08-19T02:01:25;4.93;;;3.30;;
63364;SDS011;49500;51.212;6.676;2022-08-19T02:03:56;5.60;;;3.67;;
63364;SDS011;49500;51.212;6.676;2022-08-19T02:06:23;5.10;;;3.50;;
63364;SDS011;49500;51.212;6.676;2022-08-19T02:08:52;5.50;;;3.25;;
63364;SDS011;49500;51.212;6.676;2022-08-19T02:11:24;4.80;;;3.38;;
63364;SDS011;49500;51.212;6.676;2022-08-19T02:13:52;4.72;;;2.88;;
63364;SDS011;49500;51.212;6.676;2022-08-19T02:16:18;5.43;;;3.65;;
63364;SDS011;49500;51.212;6.676;2022-08-19T02:18:44;4.88;;;3.38;;
63364;SDS011;49500;51.212;6.676;2022-08-19T02:21:09;5.15;;;3.40;;
63364;SDS011;49500;51.212;6.676;2022-08-19T02:23:36;6.30;;;3.38;;
63364;SDS011;49500;51.212;6.676;2022-08-19T02:26:01;4.72;;;3.22;;
63364;SDS011;49500;51.212;6.676;2022-08-19T02:28:27;5.00;;;3.08;;
63364;SDS011;49500;51.212;6.676;2022-08-19T02:30:53;5.10;;;3.30;;
63364;SDS011;49500;51.212;6.676;2022-08-19T02:33:18;4.85;;;2.85;;
63364;SDS011;49500;51.212;6.676;2022-08-19T02:35:44;5.05;;;3.13;;
63364;SDS011;49500;51.212;6.676;2022-08-19T02:38:10;5.45;;;3.78;;
63364;SDS011;49500;51.212;6.676;2022-08-19T02:40:53;4.30;;;2.70;;
63364;SDS011;49500;51.212;6.676;2022-08-19T02:43:19;4.82;;;3.25;;
63364;SDS011;49500;51.212;6.676;2022-08-19T02:45:46;4.97;;;2.92;;
63364;SDS011;49500;51.212;6.676;2022-08-19T02:48:14;5.15;;;3.30;;
63364;SDS011;49500;51.212;6.676;2022-08-19T02:50:47;5.70;;;3.95;;
63364;SDS011;49500;51.212;6.676;2022-08-19T02:53:18;5.32;;;3.47;;
63364;SDS011;49500;51.212;6.676;2022-08-19T02:55:47;5.32;;;3.38;;
63364;SDS011;49500;51.212;6.676;2022-08-19T02:58:13;4.68;;;2.90;;
63364;SDS011;49500;51.212;6.676;2022-08-19T03:00:41;5.20;;;3.33;;
63364;SDS011;49500;51.212;6.676;2022-08-19T03:03:07;5.85;;;3.60;;
63364;SDS011;49500;51.212;6.676;2022-08-19T03:05:33;5.00;;;3.45;;
63364;SDS011;49500;51.212;6.676;2022-08-19T03:08:13;4.82;;;3.28;;
63364;SDS011;49500;51.212;6.676;2022-08-19T03:10:41;5.07;;;3.47;;
63364;SDS011;49500;51.212;6.676;2022-08-19T03:13:10;4.72;;;3.15;;
63364;SDS011;49500;51.212;6.676;2022-08-19T03:15:38;4.88;;;3.28;;
63364;SDS011;49500;51.212;6.676;2022-08-19T03:18:04;5.47;;;3.42;;
63364;SDS011;49500;51.212;6.676;2022-08-19T03:20:29;4.90;;;3.25;;
63364;SDS011;49500;51.212;6.676;2022-08-19T03:22:55;5.18;;;3.25;;
63364;SDS011;49500;51.212;6.676;2022-08-19T03:25:20;5.22;;;3.17;;
63364;SDS011;49500;51.212;6.676;2022-08-19T03:27:46;4.50;;;2.72;;
63364;SDS011;49500;51.212;6.676;2022-08-19T03:30:14;4.78;;;3.20;;
63364;SDS011;49500;51.212;6.676;2022-08-19T03:35:16;5.30;;;3.35;;
63364;SDS011;49500;51.212;6.676;2022-08-19T03:37:43;4.93;;;3.20;;
63364;SDS011;49500;51.212;6.676;2022-08-19T03:40:08;4.70;;;2.90;;
63364;SDS011;49500;51.212;6.676;2022-08-19T03:42:39;4.95;;;3.20;;
63364;SDS011;49500;51.212;6.676;2022-08-19T03:45:24;5.05;;;3.00;;
63364;SDS011;49500;51.212;6.676;2022-08-19T03:47:50;4.75;;;3.20;;
63364;SDS011;49500;51.212;6.676;2022-08-19T03:50:16;6.05;;;3.88;;
63364;SDS011;49500;51.212;6.676;2022-08-19T03:52:42;4.93;;;3.05;;
63364;SDS011;49500;51.212;6.676;2022-08-19T03:55:13;5.05;;;3.40;;
63364;SDS011;49500;51.212;6.676;2022-08-19T03:57:38;5.07;;;3.28;;
63364;SDS011;49500;51.212;6.676;2022-08-19T04:00:04;5.13;;;3.60;;
63364;SDS011;49500;51.212;6.676;2022-08-19T04:02:39;5.20;;;3.30;;
63364;SDS011;49500;51.212;6.676;2022-08-19T04:05:05;5.00;;;3.40;;
63364;SDS011;49500;51.212;6.676;2022-08-19T04:07:30;5.28;;;3.22;;
63364;SDS011;49500;51.212;6.676;2022-08-19T04:09:56;5.38;;;3.15;;
63364;SDS011;49500;51.212;6.676;2022-08-19T04:12:22;4.82;;;2.97;;
63364;SDS011;49500;51.212;6.676;2022-08-19T04:14:47;4.97;;;3.53;;
63364;SDS011;49500;51.212;6.676;2022-08-19T04:17:13;4.88;;;3.03;;
63364;SDS011;49500;51.212;6.676;2022-08-19T04:19:39;4.72;;;3.25;;
63364;SDS011;49500;51.212;6.676;2022-08-19T04:22:05;4.95;;;3.33;;
63364;SDS011;49500;51.212;6.676;2022-08-19T04:24:33;4.95;;;2.90;;
63364;SDS011;49500;51.212;6.676;2022-08-19T04:26:59;4.75;;;2.92;;
63364;SDS011;49500;51.212;6.676;2022-08-19T04:29:25;4.35;;;2.83;;
63364;SDS011;49500;51.212;6.676;2022-08-19T04:31:53;4.43;;;2.60;;
63364;SDS011;49500;51.212;6.676;2022-08-19T04:34:20;5.18;;;3.05;;
63364;SDS011;49500;51.212;6.676;2022-08-19T04:36:49;4.72;;;2.95;;
63364;SDS011;49500;51.212;6.676;2022-08-19T04:39:17;4.40;;;2.80;;
63364;SDS011;49500;51.212;6.676;2022-08-19T04:41:43;4.60;;;2.80;;
63364;SDS011;49500;51.212;6.676;2022-08-19T04:44:30;4.47;;;2.60;;
63364;SDS011;49500;51.212;6.676;2022-08-19T04:46:58;4.47;;;2.67;;
63364;SDS011;49500;51.212;6.676;2022-08-19T04:49:24;4.90;;;3.05;;
63364;SDS011;49500;51.212;6.676;2022-08-19T04:51:51;4.75;;;2.80;;
63364;SDS011;49500;51.212;6.676;2022-08-19T04:54:19;4.80;;;3.20;;
63364;SDS011;49500;51.212;6.676;2022-08-19T04:57:05;4.80;;;2.97;;
63364;SDS011;49500;51.212;6.676;2022-08-19T04:59:31;4.85;;;3.30;;
63364;SDS011;49500;51.212;6.676;2022-08-19T05:01:58;4.30;;;2.50;;
63364;SDS011;49500;51.212;6.676;2022-08-19T05:04:24;4.38;;;2.63;;
63364;SDS011;49500;51.212;6.676;2022-08-19T05:06:49;4.57;;;2.75;;
63364;SDS011;49500;51.212;6.676;2022-08-19T05:09:17;4.88;;;3.10;;
63364;SDS011;49500;51.212;6.676;2022-08-19T05:11:42;4.40;;;2.58;;
63364;SDS011;49500;51.212;6.676;2022-08-19T05:14:08;4.78;;;2.97;;
63364;SDS011;49500;51.212;6.676;2022-08-19T05:16:34;5.07;;;2.95;;
63364;SDS011;49500;51.212;6.676;2022-08-19T05:19:00;5.18;;;3.10;;
63364;SDS011;49500;51.212;6.676;2022-08-19T05:21:46;5.13;;;3.05;;
63364;SDS011;49500;51.212;6.676;2022-08-19T05:24:32;4.63;;;2.83;;
63364;SDS011;49500;51.212;6.676;2022-08-19T05:27:00;4.75;;;2.95;;
63364;SDS011;49500;51.212;6.676;2022-08-19T05:29:29;4.80;;;2.75;;
63364;SDS011;49500;51.212;6.676;2022-08-19T05:32:03;4.53;;;2.80;;
63364;SDS011;49500;51.212;6.676;2022-08-19T05:34:30;4.68;;;2.95;;
63364;SDS011;49500;51.212;6.676;2022-08-19T05:36:56;4.88;;;3.20;;
63364;SDS011;49500;51.212;6.676;2022-08-19T05:39:23;4.72;;;2.80;;
63364;SDS011;49500;51.212;6.676;2022-08-19T05:41:51;4.22;;;2.50;;
63364;SDS011;49500;51.212;6.676;2022-08-19T05:44:18;9.98;;;3.05;;
63364;SDS011;49500;51.212;6.676;2022-08-19T05:46:45;5.25;;;3.30;;
63364;SDS011;49500;51.212;6.676;2022-08-19T05:49:14;5.57;;;3.30;;
63364;SDS011;49500;51.212;6.676;2022-08-19T05:51:41;8.52;;;3.30;;
63364;SDS011;49500;51.212;6.676;2022-08-19T05:54:07;8.52;;;4.38;;
63364;SDS011;49500;51.212;6.676;2022-08-19T05:56:34;5.13;;;2.95;;
63364;SDS011;49500;51.212;6.676;2022-08-19T05:59:02;4.65;;;2.80;;
63364;SDS011;49500;51.212;6.676;2022-08-19T06:01:28;7.55;;;3.47;;
63364;SDS011;49500;51.212;6.676;2022-08-19T06:03:53;5.50;;;3.22;;
63364;SDS011;49500;51.212;6.676;2022-08-19T06:06:19;5.63;;;2.92;;
63364;SDS011;49500;51.212;6.676;2022-08-19T06:08:45;7.07;;;3.40;;
63364;SDS011;49500;51.212;6.676;2022-08-19T06:11:23;6.53;;;3.08;;
63364;SDS011;49500;51.212;6.676;2022-08-19T06:16:16;5.05;;;3.30;;
63364;SDS011;49500;51.212;6.676;2022-08-19T06:18:50;6.18;;;3.80;;
63364;SDS011;49500;51.212;6.676;2022-08-19T06:21:18;9.48;;;3.60;;
63364;SDS011;49500;51.212;6.676;2022-08-19T06:23:44;5.75;;;3.08;;
63364;SDS011;49500;51.212;6.676;2022-08-19T06:26:12;11.98;;;7.40;;
63364;SDS011;49500;51.212;6.676;2022-08-19T06:28:37;12.75;;;9.60;;
63364;SDS011;49500;51.212;6.676;2022-08-19T06:31:08;14.15;;;11.35;;
63364;SDS011;49500;51.212;6.676;2022-08-19T06:33:33;18.58;;;11.75;;
63364;SDS011;49500;51.212;6.676;2022-08-19T06:36:00;17.38;;;12.60;;
63364;SDS011;49500;51.212;6.676;2022-08-19T06:38:26;14.32;;;11.50;;
63364;SDS011;49500;51.212;6.676;2022-08-19T06:40:59;14.20;;;11.55;;
63364;SDS011;49500;51.212;6.676;2022-08-19T06:43:25;16.08;;;11.65;;
63364;SDS011;49500;51.212;6.676;2022-08-19T06:45:54;15.63;;;10.85;;
63364;SDS011;49500;51.212;6.676;2022-08-19T06:48:21;16.00;;;11.00;;
63364;SDS011;49500;51.212;6.676;2022-08-19T06:50:51;17.38;;;11.18;;
63364;SDS011;49500;51.212;6.676;2022-08-19T06:53:17;15.40;;;11.50;;
63364;SDS011;49500;51.212;6.676;2022-08-19T06:55:46;16.63;;;11.45;;
63364;SDS011;49500;51.212;6.676;2022-08-19T06:58:12;12.75;;;10.50;;
63364;SDS011;49500;51.212;6.676;2022-08-19T07:00:39;14.32;;;9.73;;
63364;SDS011;49500;51.212;6.676;2022-08-19T07:03:04;12.88;;;9.30;;
63364;SDS011;49500;51.212;6.676;2022-08-19T07:05:39;12.70;;;9.30;;
63364;SDS011;49500;51.212;6.676;2022-08-19T07:08:04;13.48;;;9.32;;
63364;SDS011;49500;51.212;6.676;2022-08-19T07:10:31;11.73;;;8.10;;
63364;SDS011;49500;51.212;6.676;2022-08-19T07:12:58;13.02;;;7.90;;
63364;SDS011;49500;51.212;6.676;2022-08-19T07:15:24;12.45;;;8.65;;
63364;SDS011;49500;51.212;6.676;2022-08-19T07:18:00;14.05;;;8.07;;
63364;SDS011;49500;51.212;6.676;2022-08-19T07:20:26;14.05;;;8.25;;
63364;SDS011;49500;51.212;6.676;2022-08-19T07:22:53;10.07;;;6.75;;
63364;SDS011;49500;51.212;6.676;2022-08-19T07:25:19;10.80;;;7.05;;
63364;SDS011;49500;51.212;6.676;2022-08-19T07:27:57;10.43;;;7.43;;
63364;SDS011;49500;51.212;6.676;2022-08-19T07:30:26;13.45;;;7.72;;
63364;SDS011;49500;51.212;6.676;2022-08-19T07:32:52;9.90;;;6.95;;
63364;SDS011;49500;51.212;6.676;2022-08-19T07:35:18;11.93;;;7.57;;
63364;SDS011;49500;51.212;6.676;2022-08-19T07:37:45;11.73;;;7.60;;
63364;SDS011;49500;51.212;6.676;2022-08-19T07:40:11;13.48;;;8.68;;
63364;SDS011;49500;51.212;6.676;2022-08-19T07:42:37;9.93;;;7.28;;
63364;SDS011;49500;51.212;6.676;2022-08-19T07:45:03;12.43;;;8.25;;
63364;SDS011;49500;51.212;6.676;2022-08-19T07:47:29;10.35;;;8.13;;
63364;SDS011;49500;51.212;6.676;2022-08-19T07:50:15;15.05;;;9.00;;
63364;SDS011;49500;51.212;6.676;2022-08-19T07:52:41;13.52;;;9.25;;
63364;SDS011;49500;51.212;6.676;2022-08-19T07:55:14;15.05;;;9.27;;
63364;SDS011;49500;51.212;6.676;2022-08-19T07:58:00;14.05;;;9.80;;
63364;SDS011;49500;51.212;6.676;2022-08-19T08:00:28;14.10;;;10.82;;
63364;SDS011;49500;51.212;6.676;2022-08-19T08:02:53;14.20;;;9.90;;
63364;SDS011;49500;51.212;6.676;2022-08-19T08:05:21;16.08;;;10.65;;
63364;SDS011;49500;51.212;6.676;2022-08-19T08:08:12;14.65;;;9.05;;
63364;SDS011;49500;51.212;6.676;2022-08-19T08:10:59;20.90;;;10.50;;
63364;SDS011;49500;51.212;6.676;2022-08-19T08:13:25;17.67;;;10.27;;
63364;SDS011;49500;51.212;6.676;2022-08-19T08:15:51;21.45;;;11.25;;
63364;SDS011;49500;51.212;6.676;2022-08-19T08:18:21;20.63;;;10.45;;
63364;SDS011;49500;51.212;6.676;2022-08-19T08:20:52;18.65;;;10.88;;
63364;SDS011;49500;51.212;6.676;2022-08-19T08:23:18;20.40;;;10.65;;
63364;SDS011;49500;51.212;6.676;2022-08-19T08:25:52;26.45;;;11.70;;
63364;SDS011;49500;51.212;6.676;2022-08-19T08:28:20;21.45;;;10.90;;
63364;SDS011;49500;51.212;6.676;2022-08-19T08:30:46;23.95;;;11.43;;
63364;SDS011;49500;51.212;6.676;2022-08-19T08:33:13;22.95;;;13.15;;
63364;SDS011;49500;51.212;6.676;2022-08-19T08:35:44;23.85;;;13.70;;
63364;SDS011;49500;51.212;6.676;2022-08-19T08:38:10;38.42;;;16.58;;
63364;SDS011;49500;51.212;6.676;2022-08-19T08:43:49;27.48;;;16.10;;
63364;SDS011;49500;51.212;6.676;2022-08-19T08:46:10;21.70;;;15.70;;
63364;SDS011;49500;51.212;6.676;2022-08-19T08:51:27;20.15;;;16.50;;
63364;SDS011;49500;51.212;6.676;2022-08-19T08:53:59;23.90;;;17.50;;
63364;SDS011;49500;51.212;6.676;2022-08-19T08:56:26;23.13;;;17.55;;
63364;SDS011;49500;51.212;6.676;2022-08-19T08:58:56;24.10;;;17.70;;
63364;SDS011;49500;51.212;6.676;2022-08-19T09:01:23;23.60;;;16.30;;
63364;SDS011;49500;51.212;6.676;2022-08-19T09:03:48;22.52;;;15.30;;
63364;SDS011;49500;51.212;6.676;2022-08-19T09:06:36;19.33;;;13.40;;
63364;SDS011;49500;51.212;6.676;2022-08-19T09:09:14;27.27;;;18.05;;
63364;SDS011;49500;51.212;6.676;2022-08-19T09:11:47;23.75;;;17.33;;
63364;SDS011;49500;51.212;6.676;2022-08-19T09:14:28;21.65;;;16.60;;
63364;SDS011;49500;51.212;6.676;2022-08-19T09:17:16;16.80;;;12.63;;
63364;SDS011;49500;51.212;6.676;2022-08-19T09:19:51;19.05;;;12.15;;
63364;SDS011;49500;51.212;6.676;2022-08-19T09:24:53;15.63;;;8.30;;
63364;SDS011;49500;51.212;6.676;2022-08-19T09:27:19;13.63;;;9.90;;
63364;SDS011;49500;51.212;6.676;2022-08-19T09:29:46;14.93;;;9.80;;
63364;SDS011;49500;51.212;6.676;2022-08-19T09:32:15;12.70;;;8.80;;
63364;SDS011;49500;51.212;6.676;2022-08-19T09:34:52;12.75;;;7.85;;
63364;SDS011;49500;51.212;6.676;2022-08-19T09:37:20;14.93;;;9.07;;
63364;SDS011;49500;51.212;6.676;2022-08-19T09:39:46;14.80;;;7.88;;
63364;SDS011;49500;51.212;6.676;2022-08-19T09:42:12;13.85;;;7.35;;
63364;SDS011;49500;51.212;6.676;2022-08-19T09:44:54;12.93;;;7.40;;
63364;SDS011;49500;51.212;6.676;2022-08-19T09:47:20;20.45;;;7.10;;
63364;SDS011;49500;51.212;6.676;2022-08-19T09:49:48;12.05;;;6.93;;
63364;SDS011;49500;51.212;6.676;2022-08-19T09:52:14;13.43;;;6.50;;
63364;SDS011;49500;51.212;6.676;2022-08-19T09:54:41;14.35;;;7.10;;
63364;SDS011;49500;51.212;6.676;2022-08-19T09:57:09;12.35;;;6.80;;
63364;SDS011;49500;51.212;6.676;2022-08-19T09:59:35;12.00;;;6.75;;
63364;SDS011;49500;51.212;6.676;2022-08-19T10:02:00;12.02;;;7.47;;
63364;SDS011;49500;51.212;6.676;2022-08-19T10:04:36;19.83;;;8.02;;
63364;SDS011;49500;51.212;6.676;2022-08-19T10:07:24;11.20;;;7.15;;
63364;SDS011;49500;51.212;6.676;2022-08-19T10:10:02;10.68;;;7.25;;
63364;SDS011;49500;51.212;6.676;2022-08-19T10:12:28;11.25;;;6.28;;
63364;SDS011;49500;51.212;6.676;2022-08-19T10:14:56;18.27;;;6.53;;
63364;SDS011;49500;51.212;6.676;2022-08-19T10:17:22;11.40;;;6.13;;
63364;SDS011;49500;51.212;6.676;2022-08-19T10:19:52;9.90;;;6.13;;
63364;SDS011;49500;51.212;6.676;2022-08-19T10:22:22;7.97;;;6.13;;
63364;SDS011;49500;51.212;6.676;2022-08-19T10:24:50;7.22;;;5.03;;
63364;SDS011;49500;51.212;6.676;2022-08-19T10:27:20;10.88;;;5.65;;
63364;SDS011;49500;51.212;6.676;2022-08-19T10:29:51;10.32;;;5.00;;
63364;SDS011;49500;51.212;6.676;2022-08-19T10:32:17;7.97;;;5.07;;
63364;SDS011;49500;51.212;6.676;2022-08-19T10:34:42;9.20;;;4.60;;
63364;SDS011;49500;51.212;6.676;2022-08-19T10:37:14;8.05;;;4.88;;
63364;SDS011;49500;51.212;6.676;2022-08-19T10:39:43;10.50;;;5.20;;
63364;SDS011;49500;51.212;6.676;2022-08-19T10:42:10;7.72;;;5.35;;
63364;SDS011;49500;51.212;6.676;2022-08-19T10:44:37;10.10;;;5.32;;
63364;SDS011;49500;51.212;6.676;2022-08-19T10:47:02;18.38;;;5.55;;
63364;SDS011;49500;51.212;6.676;2022-08-19T10:49:42;10.38;;;5.40;;
63364;SDS011;49500;51.212;6.676;2022-08-19T10:52:28;16.98;;;5.80;;
63364;SDS011;49500;51.212;6.676;2022-08-19T10:55:04;13.52;;;5.65;;
63364;SDS011;49500;51.212;6.676;2022-08-19T10:57:54;11.63;;;6.57;;
63364;SDS011;49500;51.212;6.676;2022-08-19T11:00:28;12.75;;;6.22;;
63364;SDS011;49500;51.212;6.676;2022-08-19T11:02:54;8.43;;;5.72;;
63364;SDS011;49500;51.212;6.676;2022-08-19T11:05:20;10.23;;;6.43;;
63364;SDS011;49500;51.212;6.676;2022-08-19T11:07:52;9.02;;;6.13;;
63364;SDS011;49500;51.212;6.676;2022-08-19T11:10:18;11.02;;;6.25;;
63364;SDS011;49500;51.212;6.676;2022-08-19T11:12:48;12.18;;;6.45;;
63364;SDS011;49500;51.212;6.676;2022-08-19T11:15:16;11.02;;;6.10;;
63364;SDS011;49500;51.212;6.676;2022-08-19T11:17:41;12.27;;;5.65;;
63364;SDS011;49500;51.212;6.676;2022-08-19T11:20:11;7.95;;;5.32;;
63364;SDS011;49500;51.212;6.676;2022-08-19T11:22:37;10.98;;;5.32;;
63364;SDS011;49500;51.212;6.676;2022-08-19T11:25:07;10.65;;;5.07;;
63364;SDS011;49500;51.212;6.676;2022-08-19T11:27:33;9.40;;;5.88;;
63364;SDS011;49500;51.212;6.676;2022-08-19T11:29:59;9.35;;;5.13;;
63364;SDS011;49500;51.212;6.676;2022-08-19T11:32:25;8.75;;;4.68;;
63364;SDS011;49500;51.212;6.676;2022-08-19T11:34:51;10.15;;;6.32;;
63364;SDS011;49500;51.212;6.676;2022-08-19T11:37:18;9.20;;;5.38;;
63364;SDS011;49500;51.212;6.676;2022-08-19T11:39:43;10.50;;;5.85;;
63364;SDS011;49500;51.212;6.676;2022-08-19T11:42:18;8.77;;;5.88;;
63364;SDS011;49500;51.212;6.676;2022-08-19T11:45:03;12.95;;;5.95;;
63364;SDS011;49500;51.212;6.676;2022-08-19T11:47:29;12.10;;;5.80;;
63364;SDS011;49500;51.212;6.676;2022-08-19T11:49:55;10.77;;;5.28;;
63364;SDS011;49500;51.212;6.676;2022-08-19T11:52:21;11.68;;;5.47;;
63364;SDS011;49500;51.212;6.676;2022-08-19T11:54:47;10.50;;;5.15;;
63364;SDS011;49500;51.212;6.676;2022-08-19T11:57:12;10.68;;;4.82;;
63364;SDS011;49500;51.212;6.676;2022-08-19T11:59:40;8.65;;;4.90;;
63364;SDS011;49500;51.212;6.676;2022-08-19T12:02:05;9.75;;;5.03;;
63364;SDS011;49500;51.212;6.676;2022-08-19T12:04:31;8.07;;;4.47;;
63364;SDS011;49500;51.212;6.676;2022-08-19T12:06:56;11.43;;;4.80;;
63364;SDS011;49500;51.212;6.676;2022-08-19T12:09:22;11.82;;;4.65;;
63364;SDS011;49500;51.212;6.676;2022-08-19T12:11:47;6.45;;;4.43;;
63364;SDS011;49500;51.212;6.676;2022-08-19T12:14:13;8.63;;;4.85;;
63364;SDS011;49500;51.212;6.676;2022-08-19T12:16:40;9.10;;;5.50;;
63364;SDS011;49500;51.212;6.676;2022-08-19T12:19:16;6.75;;;4.40;;
63364;SDS011;49500;51.212;6.676;2022-08-19T12:21:47;7.57;;;4.68;;
63364;SDS011;49500;51.212;6.676;2022-08-19T12:24:13;10.25;;;4.68;;
63364;SDS011;49500;51.212;6.676;2022-08-19T12:26:38;8.05;;;4.47;;
63364;SDS011;49500;51.212;6.676;2022-08-19T12:29:18;8.50;;;5.03;;
63364;SDS011;49500;51.212;6.676;2022-08-19T12:31:48;7.63;;;4.78;;
63364;SDS011;49500;51.212;6.676;2022-08-19T12:34:14;5.95;;;4.40;;
63364;SDS011;49500;51.212;6.676;2022-08-19T12:36:39;7.35;;;4.18;;
63364;SDS011;49500;51.212;6.676;2022-08-19T12:39:05;7.22;;;3.95;;
63364;SDS011;49500;51.212;6.676;2022-08-19T12:41:36;7.68;;;4.25;;
63364;SDS011;49500;51.212;6.676;2022-08-19T12:44:12;7.53;;;4.18;;
63364;SDS011;49500;51.212;6.676;2022-08-19T12:46:39;6.57;;;4.00;;
63364;SDS011;49500;51.212;6.676;2022-08-19T12:49:06;7.43;;;3.88;;
63364;SDS011;49500;51.212;6.676;2022-08-19T12:51:52;6.18;;;4.38;;
63364;SDS011;49500;51.212;6.676;2022-08-19T12:54:17;9.75;;;4.60;;
63364;SDS011;49500;51.212;6.676;2022-08-19T12:56:43;9.45;;;4.25;;
63364;SDS011;49500;51.212;6.676;2022-08-19T12:59:09;7.25;;;4.20;;
63364;SDS011;49500;51.212;6.676;2022-08-19T13:01:36;8.85;;;4.03;;
63364;SDS011;49500;51.212;6.676;2022-08-19T13:04:02;7.45;;;3.97;;
63364;SDS011;49500;51.212;6.676;2022-08-19T13:06:27;6.78;;;3.80;;
63364;SDS011;49500;51.212;6.676;2022-08-19T13:08:53;7.50;;;3.22;;
63364;SDS011;49500;51.212;6.676;2022-08-19T13:11:25;7.63;;;3.88;;
63364;SDS011;49500;51.212;6.676;2022-08-19T13:13:51;9.48;;;3.67;;
63364;SDS011;49500;51.212;6.676;2022-08-19T13:16:17;7.15;;;3.80;;
63364;SDS011;49500;51.212;6.676;2022-08-19T13:18:44;8.75;;;4.15;;
63364;SDS011;49500;51.212;6.676;2022-08-19T13:21:10;6.68;;;3.75;;
63364;SDS011;49500;51.212;6.676;2022-08-19T13:23:38;6.35;;;3.20;;
63364;SDS011;49500;51.212;6.676;2022-08-19T13:26:06;8.18;;;3.70;;
63364;SDS011;49500;51.212;6.676;2022-08-19T13:28:32;7.90;;;3.40;;
63364;SDS011;49500;51.212;6.676;2022-08-19T13:31:18;7.75;;;3.25;;
63364;SDS011;49500;51.212;6.676;2022-08-19T13:34:04;6.80;;;3.47;;
63364;SDS011;49500;51.212;6.676;2022-08-19T13:36:34;7.10;;;3.55;;
63364;SDS011;49500;51.212;6.676;2022-08-19T13:38:59;8.43;;;4.28;;
63364;SDS011;49500;51.212;6.676;2022-08-19T13:41:25;6.65;;;3.72;;
63364;SDS011;49500;51.212;6.676;2022-08-19T13:43:52;7.53;;;3.53;;
63364;SDS011;49500;51.212;6.676;2022-08-19T13:46:17;6.13;;;3.17;;
63364;SDS011;49500;51.212;6.676;2022-08-19T13:48:45;8.38;;;3.63;;
63364;SDS011;49500;51.212;6.676;2022-08-19T13:51:11;9.80;;;3.90;;
63364;SDS011;49500;51.212;6.676;2022-08-19T13:53:37;7.57;;;3.55;;
63364;SDS011;49500;51.212;6.676;2022-08-19T13:56:06;8.85;;;3.58;;
63364;SDS011;49500;51.212;6.676;2022-08-19T13:58:32;13.38;;;3.65;;
63364;SDS011;49500;51.212;6.676;2022-08-19T14:00:58;7.93;;;2.92;;
63364;SDS011;49500;51.212;6.676;2022-08-19T14:03:25;12.55;;;3.65;;
63364;SDS011;49500;51.212;6.676;2022-08-19T14:05:50;10.73;;;3.30;;
63364;SDS011;49500;51.212;6.676;2022-08-19T14:08:16;5.65;;;2.70;;
63364;SDS011;49500;51.212;6.676;2022-08-19T14:10:42;10.48;;;3.72;;
63364;SDS011;49500;51.212;6.676;2022-08-19T14:13:09;9.73;;;2.83;;
63364;SDS011;49500;51.212;6.676;2022-08-19T14:15:35;8.82;;;2.97;;
63364;SDS011;49500;51.212;6.676;2022-08-19T14:18:02;6.57;;;2.75;;
63364;SDS011;49500;51.212;6.676;2022-08-19T14:20:28;12.95;;;2.58;;
63364;SDS011;49500;51.212;6.676;2022-08-19T14:22:54;4.65;;;2.60;;
63364;SDS011;49500;51.212;6.676;2022-08-19T14:25:21;6.53;;;2.45;;
63364;SDS011;49500;51.212;6.676;2022-08-19T14:27:47;5.78;;;2.70;;
63364;SDS011;49500;51.212;6.676;2022-08-19T14:30:15;7.35;;;2.65;;
63364;SDS011;49500;51.212;6.676;2022-08-19T14:32:41;8.05;;;2.75;;
63364;SDS011;49500;51.212;6.676;2022-08-19T14:35:08;5.03;;;2.42;;
63364;SDS011;49500;51.212;6.676;2022-08-19T14:37:34;8.45;;;2.83;;
63364;SDS011;49500;51.212;6.676;2022-08-19T14:40:11;14.75;;;3.20;;
63364;SDS011;49500;51.212;6.676;2022-08-19T14:42:37;10.55;;;2.63;;
63364;SDS011;49500;51.212;6.676;2022-08-19T14:45:03;5.28;;;2.70;;
63364;SDS011;49500;51.212;6.676;2022-08-19T14:47:31;10.40;;;2.90;;
63364;SDS011;49500;51.212;6.676;2022-08-19T14:49:57;12.50;;;2.53;;
63364;SDS011;49500;51.212;6.676;2022-08-19T14:52:23;9.73;;;2.80;;
63364;SDS011;49500;51.212;6.676;2022-08-19T14:54:49;10.52;;;2.88;;
63364;SDS011;49500;51.212;6.676;2022-08-19T14:57:14;8.23;;;2.40;;
63364;SDS011;49500;51.212;6.676;2022-08-19T14:59:41;7.45;;;2.60;;
63364;SDS011;49500;51.212;6.676;2022-08-19T15:02:07;9.60;;;2.50;;